Time;durP1;ratioP1;P1;durP2;ratioP2;P2;SDS_P1;SDS_P2;PMS_P1;PMS_P2;Temp;Humidity;BMP_temperature;BMP_pressure;BME280_temperature;BME280_humidity;BME280_pressure;Samples;Min_cycle;Max_cycle;Signal;HPM_P1;HPM_P2
2022/09/27 00:00:04;;;;;;;1.98;0.90;;;;;;;;;;5034383;28;20363;-72
2022/09/27 00:02:30;;;;;;;3.70;1.15;;;;;;;;;;5034072;28;20059;-72
2022/09/27 00:04:57;;;;;;;7.60;0.98;;;;;;;;;;5034283;28;20022;-72
2022/09/27 00:07:23;;;;;;;2.05;1.00;;;;;;;;;;5034074;28;20024;-72
2022/09/27 00:09:50;;;;;;;5.22;1.10;;;;;;;;;;5034103;28;20036;-72
2022/09/27 00:12:16;;;;;;;3.03;1.00;;;;;;;;;;5034119;28;20046;-72
2022/09/27 00:14:42;;;;;;;2.10;0.75;;;;;;;;;;5033930;28;20029;-73
2022/09/27 00:17:09;;;;;;;1.63;0.80;;;;;;;;;;5034064;28;20029;-72
2022/09/27 00:19:35;;;;;;;2.90;0.82;;;;;;;;;;5034291;28;20033;-72
2022/09/27 00:22:02;;;;;;;4.18;0.90;;;;;;;;;;5033903;28;20051;-72
2022/09/27 00:24:28;;;;;;;3.25;0.90;;;;;;;;;;5033775;28;20035;-72
2022/09/27 00:26:55;;;;;;;2.38;0.65;;;;;;;;;;5033788;28;20499;-72
2022/09/27 00:29:21;;;;;;;1.27;0.70;;;;;;;;;;5033558;28;20516;-73
2022/09/27 00:31:47;;;;;;;2.38;0.70;;;;;;;;;;5033863;28;20041;-72
2022/09/27 00:34:25;;;;;;;1.80;0.70;;;;;;;;;;5033707;28;20021;-72
2022/09/27 00:36:52;;;;;;;0.85;0.40;;;;;;;;;;5033337;28;20029;-73
2022/09/27 00:39:18;;;;;;;0.63;0.30;;;;;;;;;;5033745;28;20021;-72
2022/09/27 00:41:45;;;;;;;1.73;0.40;;;;;;;;;;5032909;28;20045;-72
2022/09/27 00:44:27;;;;;;;1.05;0.40;;;;;;;;;;5032997;28;20428;-72
2022/09/27 00:47:11;;;;;;;1.30;0.30;;;;;;;;;;5032367;28;20036;-73
2022/09/27 00:49:42;;;;;;;0.55;0.40;;;;;;;;;;5033368;28;20405;-72
2022/09/27 00:52:10;;;;;;;0.85;0.32;;;;;;;;;;5033090;28;20017;-72
2022/09/27 00:54:40;;;;;;;1.02;0.40;;;;;;;;;;5033126;28;20033;-72
2022/09/27 00:57:06;;;;;;;0.45;0.30;;;;;;;;;;5033334;28;20025;-72
2022/09/27 00:59:38;;;;;;;0.70;0.22;;;;;;;;;;5033335;28;20024;-72
2022/09/27 01:02:05;;;;;;;0.43;0.30;;;;;;;;;;5033143;28;20051;-72
2022/09/27 01:04:32;;;;;;;0.20;0.20;;;;;;;;;;5033340;28;20032;-72
2022/09/27 01:06:59;;;;;;;0.20;0.20;;;;;;;;;;5033074;28;20022;-72
2022/09/27 01:09:25;;;;;;;0.10;0.10;;;;;;;;;;5033250;28;20026;-72
2022/09/27 01:11:58;;;;;;;0.82;0.30;;;;;;;;;;5032944;28;20049;-72
2022/09/27 01:14:33;;;;;;;0.20;0.20;;;;;;;;;;5031594;28;20031;-72
2022/09/27 01:17:18;;;;;;;0.40;0.30;;;;;;;;;;5033240;28;20047;-72
2022/09/27 01:20:07;;;;;;;0.35;0.35;;;;;;;;;;5032802;28;20548;-72
2022/09/27 01:22:33;;;;;;;0.35;0.20;;;;;;;;;;5032473;28;20083;-72
2022/09/27 01:25:02;;;;;;;0.95;0.20;;;;;;;;;;5032740;28;20009;-72
2022/09/27 01:27:29;;;;;;;0.20;0.20;;;;;;;;;;5032904;28;20047;-72
2022/09/27 01:30:14;;;;;;;0.77;0.30;;;;;;;;;;5032530;28;20074;-72
2022/09/27 01:32:50;;;;;;;0.80;0.20;;;;;;;;;;5032955;28;20534;-72
2022/09/27 01:35:23;;;;;;;0.20;0.20;;;;;;;;;;5032246;28;20025;-72
2022/09/27 01:37:58;;;;;;;2.97;0.60;;;;;;;;;;5031216;28;20027;-73
2022/09/27 01:40:28;;;;;;;0.20;0.20;;;;;;;;;;5032343;28;20371;-72
2022/09/27 01:43:00;;;;;;;0.93;0.32;;;;;;;;;;5032491;28;20038;-72
2022/09/27 01:45:30;;;;;;;0.35;0.30;;;;;;;;;;5031181;28;20028;-72
2022/09/27 01:48:02;;;;;;;1.13;0.30;;;;;;;;;;5032406;28;20021;-72
2022/09/27 01:50:31;;;;;;;5.45;1.23;;;;;;;;;;5031800;28;20278;-72
2022/09/27 01:53:16;;;;;;;6.60;1.10;;;;;;;;;;5032619;28;20018;-72
2022/09/27 01:55:43;;;;;;;12.57;1.52;;;;;;;;;;5032314;28;20025;-72
2022/09/27 01:58:31;;;;;;;12.90;2.05;;;;;;;;;;5032658;28;20022;-72
2022/09/27 02:00:59;;;;;;;14.38;1.73;;;;;;;;;;5032347;28;20024;-72
2022/09/27 02:03:40;;;;;;;15.95;2.42;;;;;;;;;;5032168;28;20025;-72
2022/09/27 02:06:18;;;;;;;8.30;1.80;;;;;;;;;;5031838;28;20502;-72
2022/09/27 02:08:48;;;;;;;13.63;1.73;;;;;;;;;;5032089;28;20039;-72
2022/09/27 02:11:15;;;;;;;11.40;2.25;;;;;;;;;;5031848;28;20032;-72
2022/09/27 02:13:44;;;;;;;5.88;1.45;;;;;;;;;;5031935;28;20043;-71
2022/09/27 02:16:13;;;;;;;5.47;1.55;;;;;;;;;;5032030;28;20337;-71
2022/09/27 02:19:08;;;;;;;12.43;1.85;;;;;;;;;;5030424;28;20037;-72
2022/09/27 02:21:40;;;;;;;13.25;1.90;;;;;;;;;;5030848;28;20046;-72
2022/09/27 02:24:09;;;;;;;13.77;2.00;;;;;;;;;;5030596;28;20026;-72
2022/09/27 02:26:40;;;;;;;5.22;1.40;;;;;;;;;;5032033;28;20040;-72
2022/09/27 02:29:10;;;;;;;9.13;1.70;;;;;;;;;;5031583;28;20030;-72
2022/09/27 02:31:36;;;;;;;7.95;1.85;;;;;;;;;;5030857;28;20029;-72
2022/09/27 02:34:05;;;;;;;10.82;1.80;;;;;;;;;;5031377;28;20021;-72
2022/09/27 02:36:32;;;;;;;12.27;1.70;;;;;;;;;;5031814;28;20026;-72
2022/09/27 02:39:00;;;;;;;9.45;1.55;;;;;;;;;;5031900;28;20152;-72
2022/09/27 02:41:26;;;;;;;8.15;1.35;;;;;;;;;;5031793;28;20026;-72
2022/09/27 02:43:55;;;;;;;7.68;1.50;;;;;;;;;;5032421;28;20018;-72
2022/09/27 02:46:21;;;;;;;12.38;1.73;;;;;;;;;;5031854;28;20018;-72
2022/09/27 02:49:09;;;;;;;9.10;1.67;;;;;;;;;;5031530;28;20017;-72
2022/09/27 02:51:54;;;;;;;9.00;1.50;;;;;;;;;;5031666;28;20086;-72
2022/09/27 02:54:20;;;;;;;7.93;1.58;;;;;;;;;;5031612;28;20032;-72
2022/09/27 02:57:05;;;;;;;8.52;1.38;;;;;;;;;;5031644;28;20017;-72
2022/09/27 02:59:52;;;;;;;9.85;1.83;;;;;;;;;;5031760;28;20036;-72
2022/09/27 03:02:26;;;;;;;6.65;1.27;;;;;;;;;;5009214;28;20049;-72
2022/09/27 03:04:53;;;;;;;13.13;1.92;;;;;;;;;;5009838;28;20053;-73
2022/09/27 03:07:20;;;;;;;11.38;1.63;;;;;;;;;;5012860;28;20075;-72
2022/09/27 03:09:47;;;;;;;6.00;1.35;;;;;;;;;;5013279;28;20029;-71
2022/09/27 03:12:15;;;;;;;9.07;1.70;;;;;;;;;;5013390;28;20049;-72
2022/09/27 03:14:41;;;;;;;9.27;1.30;;;;;;;;;;5013085;28;20034;-72
2022/09/27 03:17:08;;;;;;;8.27;1.42;;;;;;;;;;5012797;28;20488;-72
2022/09/27 03:19:34;;;;;;;6.60;1.58;;;;;;;;;;5013156;28;20092;-73
2022/09/27 03:22:00;;;;;;;7.82;1.83;;;;;;;;;;5013293;28;20046;-72
2022/09/27 03:24:27;;;;;;;8.98;1.55;;;;;;;;;;5012838;28;20437;-72
2022/09/27 03:26:53;;;;;;;6.82;1.50;;;;;;;;;;5013261;28;20042;-72
2022/09/27 03:29:20;;;;;;;5.75;1.25;;;;;;;;;;5012692;28;20034;-72
2022/09/27 03:31:46;;;;;;;8.10;1.33;;;;;;;;;;5012423;28;20034;-72
2022/09/27 03:34:12;;;;;;;6.63;1.50;;;;;;;;;;5012966;28;20021;-72
2022/09/27 03:36:39;;;;;;;11.30;1.55;;;;;;;;;;5012738;28;20037;-72
2022/09/27 03:39:05;;;;;;;7.68;1.58;;;;;;;;;;5020951;28;20037;-72
2022/09/27 03:41:31;;;;;;;8.43;1.80;;;;;;;;;;5034687;28;20504;-72
2022/09/27 03:43:58;;;;;;;8.18;1.90;;;;;;;;;;5034566;28;20026;-72
2022/09/27 03:46:25;;;;;;;10.52;1.85;;;;;;;;;;5034435;28;20021;-72
2022/09/27 03:48:51;;;;;;;6.78;1.40;;;;;;;;;;5034384;28;20036;-72
2022/09/27 03:51:18;;;;;;;8.88;1.77;;;;;;;;;;5034562;28;20036;-72
2022/09/27 03:53:44;;;;;;;13.02;2.15;;;;;;;;;;5034689;28;20034;-72
2022/09/27 03:56:11;;;;;;;9.18;1.58;;;;;;;;;;5034456;28;20025;-72
2022/09/27 03:58:37;;;;;;;12.07;1.95;;;;;;;;;;5034506;28;20026;-72
2022/09/27 04:01:03;;;;;;;8.77;1.40;;;;;;;;;;5033821;28;20574;-72
2022/09/27 04:03:30;;;;;;;9.10;1.70;;;;;;;;;;5049650;28;20040;-72
2022/09/27 04:05:56;;;;;;;7.30;1.80;;;;;;;;;;5034137;28;20051;-72
2022/09/27 04:08:23;;;;;;;12.60;2.30;;;;;;;;;;5032921;28;20029;-72
2022/09/27 04:10:49;;;;;;;8.98;2.20;;;;;;;;;;5049725;28;20038;-72
2022/09/27 04:13:15;;;;;;;10.13;1.60;;;;;;;;;;5034198;28;20045;-72
2022/09/27 04:15:42;;;;;;;11.23;1.90;;;;;;;;;;5033714;28;20394;-72
2022/09/27 04:18:08;;;;;;;12.43;2.13;;;;;;;;;;5034121;28;20505;-72
2022/09/27 04:20:35;;;;;;;9.73;2.05;;;;;;;;;;5034207;28;20039;-71
2022/09/27 04:23:02;;;;;;;10.77;1.75;;;;;;;;;;5033900;28;20037;-72
2022/09/27 04:25:28;;;;;;;12.65;2.15;;;;;;;;;;5034212;28;20024;-72
2022/09/27 04:27:55;;;;;;;16.27;2.50;;;;;;;;;;5032482;28;20433;-72
2022/09/27 04:30:22;;;;;;;15.68;2.83;;;;;;;;;;5033555;28;20025;-71
2022/09/27 04:32:48;;;;;;;16.35;2.20;;;;;;;;;;5033740;28;20030;-72
2022/09/27 04:37:59;;;;;;;13.85;2.45;;;;;;;;;;5033452;28;20482;-72
2022/09/27 04:40:26;;;;;;;13.98;1.95;;;;;;;;;;5033575;28;20029;-71
2022/09/27 04:42:52;;;;;;;10.30;2.58;;;;;;;;;;5033433;28;20428;-71
2022/09/27 04:45:19;;;;;;;8.82;1.77;;;;;;;;;;5033023;28;20025;-71
2022/09/27 04:47:46;;;;;;;8.65;1.73;;;;;;;;;;5033803;28;20022;-71
2022/09/27 04:50:13;;;;;;;8.38;2.13;;;;;;;;;;5033360;28;20039;-72
2022/09/27 04:52:39;;;;;;;10.38;2.25;;;;;;;;;;5033364;28;20029;-72
2022/09/27 04:55:07;;;;;;;10.68;2.75;;;;;;;;;;5033345;28;20424;-72
2022/09/27 04:57:33;;;;;;;8.73;2.03;;;;;;;;;;5033321;28;20027;-71
2022/09/27 05:00:00;;;;;;;13.07;2.20;;;;;;;;;;5032904;28;20033;-72
2022/09/27 05:02:27;;;;;;;11.98;2.03;;;;;;;;;;5032885;28;20026;-72
2022/09/27 05:04:58;;;;;;;11.40;2.17;;;;;;;;;;5033096;28;20021;-72
2022/09/27 05:07:27;;;;;;;16.77;2.08;;;;;;;;;;5033038;28;20032;-72
2022/09/27 05:09:54;;;;;;;11.60;1.95;;;;;;;;;;5032930;28;20036;-72
2022/09/27 05:12:21;;;;;;;10.57;1.88;;;;;;;;;;5032682;28;20513;-72
2022/09/27 05:14:47;;;;;;;10.73;1.98;;;;;;;;;;5032840;28;20033;-72
2022/09/27 05:17:14;;;;;;;8.48;2.15;;;;;;;;;;5032936;28;20494;-72
2022/09/27 05:19:40;;;;;;;8.45;1.65;;;;;;;;;;5033094;28;20029;-72
2022/09/27 05:22:06;;;;;;;13.70;2.50;;;;;;;;;;5032832;28;20041;-72
2022/09/27 05:24:33;;;;;;;13.60;2.40;;;;;;;;;;5032968;28;20017;-72
2022/09/27 05:27:00;;;;;;;10.95;1.73;;;;;;;;;;5032366;28;20029;-72
2022/09/27 05:29:26;;;;;;;11.55;1.85;;;;;;;;;;5031761;28;20448;-72
2022/09/27 05:31:52;;;;;;;12.85;2.17;;;;;;;;;;5032857;28;20027;-72
2022/09/27 05:34:19;;;;;;;15.63;3.28;;;;;;;;;;5032711;28;20044;-72
2022/09/27 05:36:49;;;;;;;10.85;2.17;;;;;;;;;;5032613;28;20455;-72
2022/09/27 05:39:16;;;;;;;13.00;2.15;;;;;;;;;;5047781;28;20025;-72
2022/09/27 05:41:42;;;;;;;12.70;2.05;;;;;;;;;;5032180;28;20029;-72
2022/09/27 05:44:09;;;;;;;8.00;1.85;;;;;;;;;;5032252;28;20079;-72
2022/09/27 05:46:35;;;;;;;9.13;2.13;;;;;;;;;;5032153;28;20033;-72
2022/09/27 05:49:01;;;;;;;13.40;2.60;;;;;;;;;;5032214;28;20052;-73
2022/09/27 05:51:28;;;;;;;13.73;2.47;;;;;;;;;;5032070;28;20018;-72
2022/09/27 05:53:54;;;;;;;9.70;2.00;;;;;;;;;;5031130;28;20075;-73
2022/09/27 05:56:20;;;;;;;10.38;2.10;;;;;;;;;;5031931;28;20009;-73
2022/09/27 05:58:47;;;;;;;10.43;2.10;;;;;;;;;;5032300;28;20486;-72
2022/09/27 06:01:14;;;;;;;8.85;2.03;;;;;;;;;;5032342;28;20055;-72
2022/09/27 06:03:40;;;;;;;12.93;2.03;;;;;;;;;;5031536;28;20402;-72
2022/09/27 06:06:07;;;;;;;12.82;2.10;;;;;;;;;;5032214;28;20022;-73
2022/09/27 06:08:34;;;;;;;7.35;1.88;;;;;;;;;;5031956;28;20055;-72
2022/09/27 06:11:04;;;;;;;12.55;2.17;;;;;;;;;;5031529;28;20029;-72
2022/09/27 06:13:32;;;;;;;10.23;2.08;;;;;;;;;;5031479;28;20053;-73
2022/09/27 06:15:58;;;;;;;13.15;1.85;;;;;;;;;;5025156;28;20024;-72
2022/09/27 06:18:25;;;;;;;9.70;2.10;;;;;;;;;;5028795;28;20032;-72
2022/09/27 06:20:52;;;;;;;12.60;1.98;;;;;;;;;;5030777;28;20021;-72
2022/09/27 06:23:19;;;;;;;13.15;2.63;;;;;;;;;;5030100;28;20041;-72
2022/09/27 06:25:46;;;;;;;12.45;2.03;;;;;;;;;;5030647;28;20026;-72
2022/09/27 06:28:13;;;;;;;13.35;2.25;;;;;;;;;;5031219;28;20022;-72
2022/09/27 06:30:40;;;;;;;13.32;2.38;;;;;;;;;;5031160;28;20520;-72
2022/09/27 06:33:07;;;;;;;9.73;2.38;;;;;;;;;;5031409;28;20482;-72
2022/09/27 06:35:35;;;;;;;10.90;2.22;;;;;;;;;;5031202;28;20026;-72
2022/09/27 06:38:08;;;;;;;13.02;2.60;;;;;;;;;;5029328;28;20026;-72
2022/09/27 06:40:35;;;;;;;8.65;1.98;;;;;;;;;;5023283;28;20034;-72
2022/09/27 06:43:02;;;;;;;10.20;2.25;;;;;;;;;;5034295;28;20041;-73
2022/09/27 06:45:30;;;;;;;10.95;2.03;;;;;;;;;;5035608;28;20022;-72
2022/09/27 06:47:57;;;;;;;10.40;2.30;;;;;;;;;;5033621;28;20083;-72
2022/09/27 06:50:23;;;;;;;14.10;2.65;;;;;;;;;;5034975;28;20022;-73
2022/09/27 06:52:49;;;;;;;8.98;2.10;;;;;;;;;;5033923;28;20523;-72
2022/09/27 06:55:16;;;;;;;10.40;2.45;;;;;;;;;;5033689;28;20021;-72
2022/09/27 07:00:28;;;;;;;12.30;1.98;;;;;;;;;;5035129;28;20026;-72
2022/09/27 07:02:57;;;;;;;16.30;2.22;;;;;;;;;;5034824;28;20041;-72
2022/09/27 07:05:24;;;;;;;12.73;1.98;;;;;;;;;;5035028;28;20501;-73
2022/09/27 07:07:56;;;;;;;14.50;1.95;;;;;;;;;;5034216;28;20033;-72
2022/09/27 07:10:27;;;;;;;7.97;2.03;;;;;;;;;;5034572;28;20028;-73
2022/09/27 07:12:53;;;;;;;11.77;2.38;;;;;;;;;;5034500;28;20053;-72
2022/09/27 07:15:20;;;;;;;7.85;1.92;;;;;;;;;;5034731;28;20060;-72
2022/09/27 07:17:59;;;;;;;9.65;1.55;;;;;;;;;;5033338;28;20049;-72
2022/09/27 07:20:26;;;;;;;10.10;1.98;;;;;;;;;;5034681;28;20056;-72
2022/09/27 07:22:52;;;;;;;9.23;2.08;;;;;;;;;;5034510;28;20039;-73
2022/09/27 07:25:19;;;;;;;12.50;1.80;;;;;;;;;;5039256;28;20036;-72
2022/09/27 07:27:45;;;;;;;8.70;2.15;;;;;;;;;;5032761;28;20029;-72
2022/09/27 07:30:12;;;;;;;16.90;1.80;;;;;;;;;;5034298;28;20022;-72
2022/09/27 07:32:39;;;;;;;11.88;2.05;;;;;;;;;;5034486;28;20033;-73
2022/09/27 07:35:07;;;;;;;11.73;2.13;;;;;;;;;;5033054;28;20037;-72
2022/09/27 07:37:34;;;;;;;11.02;2.13;;;;;;;;;;5033879;28;20029;-72
2022/09/27 07:40:00;;;;;;;12.25;2.15;;;;;;;;;;5034364;28;20025;-72
2022/09/27 07:42:27;;;;;;;12.93;2.25;;;;;;;;;;5034156;28;20029;-73
2022/09/27 07:44:57;;;;;;;10.43;2.03;;;;;;;;;;5034491;28;20018;-72
2022/09/27 07:47:24;;;;;;;13.00;2.35;;;;;;;;;;5032860;28;20453;-72
2022/09/27 07:49:53;;;;;;;15.02;3.00;;;;;;;;;;5034138;28;20026;-73
2022/09/27 07:52:19;;;;;;;9.95;2.58;;;;;;;;;;5033011;28;20469;-73
2022/09/27 07:54:46;;;;;;;21.27;3.10;;;;;;;;;;5034104;28;20028;-72
2022/09/27 07:57:13;;;;;;;14.43;2.97;;;;;;;;;;5032947;28;20037;-72
2022/09/27 07:59:40;;;;;;;18.50;2.65;;;;;;;;;;5034165;28;20022;-72
2022/09/27 08:02:06;;;;;;;14.73;2.28;;;;;;;;;;5033897;28;20467;-72
2022/09/27 08:04:33;;;;;;;11.52;2.08;;;;;;;;;;5033809;28;20471;-73
2022/09/27 08:06:59;;;;;;;14.40;2.53;;;;;;;;;;5033514;28;20025;-72
2022/09/27 08:09:25;;;;;;;15.45;2.78;;;;;;;;;;5033991;28;20032;-72
2022/09/27 08:11:52;;;;;;;11.40;2.20;;;;;;;;;;5033210;28;20045;-72
2022/09/27 08:14:19;;;;;;;13.07;2.67;;;;;;;;;;5033409;28;20029;-73
2022/09/27 08:16:46;;;;;;;19.45;3.22;;;;;;;;;;5033705;28;20018;-73
2022/09/27 08:19:13;;;;;;;16.88;3.05;;;;;;;;;;5033524;28;20051;-72
2022/09/27 08:21:39;;;;;;;12.95;2.97;;;;;;;;;;5033213;28;20036;-73
2022/09/27 08:24:05;;;;;;;10.18;2.65;;;;;;;;;;5033695;28;20037;-72
2022/09/27 08:26:32;;;;;;;12.80;2.75;;;;;;;;;;5033049;28;20025;-72
2022/09/27 08:28:58;;;;;;;13.00;2.95;;;;;;;;;;5033357;28;20059;-72
2022/09/27 08:31:25;;;;;;;13.27;3.10;;;;;;;;;;5033622;28;20034;-72
2022/09/27 08:33:52;;;;;;;7.85;2.22;;;;;;;;;;5032995;28;20039;-73
2022/09/27 08:36:19;;;;;;;12.55;2.78;;;;;;;;;;5032002;28;20025;-72
2022/09/27 08:38:49;;;;;;;12.77;2.67;;;;;;;;;;5033196;28;20478;-72
2022/09/27 08:41:21;;;;;;;14.55;2.97;;;;;;;;;;5033338;28;20033;-73
2022/09/27 08:44:03;;;;;;;12.27;2.67;;;;;;;;;;5033423;28;20037;-72
2022/09/27 08:46:41;;;;;;;14.85;2.97;;;;;;;;;;5032250;28;20510;-73
2022/09/27 08:49:14;;;;;;;14.55;3.00;;;;;;;;;;5033334;28;20023;-72
2022/09/27 08:51:40;;;;;;;15.63;2.47;;;;;;;;;;5032625;28;20024;-72
2022/09/27 08:54:11;;;;;;;11.63;2.45;;;;;;;;;;5032875;28;20022;-72
2022/09/27 08:56:37;;;;;;;18.70;3.72;;;;;;;;;;5033019;28;20029;-72
2022/09/27 08:59:14;;;;;;;11.98;2.22;;;;;;;;;;5032970;28;20037;-72
2022/09/27 09:01:41;;;;;;;16.88;2.42;;;;;;;;;;5028581;28;20037;-72
2022/09/27 09:04:08;;;;;;;13.30;2.47;;;;;;;;;;5015337;28;20034;-72
2022/09/27 09:06:42;;;;;;;13.48;2.72;;;;;;;;;;5012477;28;20030;-74
2022/09/27 09:09:09;;;;;;;13.25;2.67;;;;;;;;;;5012736;28;20028;-72
2022/09/27 09:15:02;;;;;;;10.75;2.40;;;;;;;;;;5027778;28;20426;-72
2022/09/27 09:17:47;;;;;;;12.52;2.50;;;;;;;;;;5012925;28;20025;-72
2022/09/27 09:20:13;;;;;;;7.88;2.33;;;;;;;;;;5020872;28;20040;-72
2022/09/27 09:22:47;;;;;;;7.10;2.15;;;;;;;;;;5031537;28;20033;-72
2022/09/27 09:25:14;;;;;;;50.70;4.75;;;;;;;;;;5028052;28;20024;-72
2022/09/27 09:27:59;;;;;;;10.73;2.42;;;;;;;;;;5035383;28;20034;-72
2022/09/27 09:30:37;;;;;;;8.73;2.40;;;;;;;;;;5030995;28;20510;-73
2022/09/27 09:33:04;;;;;;;10.57;1.90;;;;;;;;;;5032076;28;20017;-72
2022/09/27 09:35:36;;;;;;;8.32;2.03;;;;;;;;;;5032132;28;20508;-73
2022/09/27 09:38:04;;;;;;;12.50;2.55;;;;;;;;;;5030711;28;20494;-72
2022/09/27 09:40:36;;;;;;;12.20;2.50;;;;;;;;;;5032164;28;20478;-72
2022/09/27 09:43:04;;;;;;;10.63;2.17;;;;;;;;;;5030895;28;20055;-73
2022/09/27 09:45:33;;;;;;;11.85;2.30;;;;;;;;;;5031860;28;20034;-73
2022/09/27 09:48:00;;;;;;;9.75;2.33;;;;;;;;;;5029823;28;20390;-73
2022/09/27 09:50:34;;;;;;;11.50;2.25;;;;;;;;;;5012495;28;20022;-73
2022/09/27 09:53:04;;;;;;;7.05;2.20;;;;;;;;;;5019950;28;20021;-73
2022/09/27 09:55:34;;;;;;;11.00;2.05;;;;;;;;;;5030625;28;20066;-73
2022/09/27 09:58:01;;;;;;;10.27;2.65;;;;;;;;;;5028368;28;20037;-73
2022/09/27 10:00:27;;;;;;;10.75;2.03;;;;;;;;;;5010893;28;20394;-73
2022/09/27 10:02:58;;;;;;;11.35;2.58;;;;;;;;;;5019077;28;20044;-73
2022/09/27 10:05:25;;;;;;;14.63;2.65;;;;;;;;;;5031698;28;20032;-72
2022/09/27 10:07:53;;;;;;;10.02;2.83;;;;;;;;;;5031767;28;20029;-73
2022/09/27 10:10:20;;;;;;;10.23;2.30;;;;;;;;;;5032173;28;20025;-73
2022/09/27 10:12:47;;;;;;;8.57;2.50;;;;;;;;;;5031328;28;20068;-73
2022/09/27 10:15:17;;;;;;;11.60;2.50;;;;;;;;;;5031628;28;20027;-72
2022/09/27 10:17:45;;;;;;;11.85;2.10;;;;;;;;;;5031456;28;20392;-73
2022/09/27 10:20:35;;;;;;;12.88;2.75;;;;;;;;;;5031644;28;20079;-72
2022/09/27 10:23:09;;;;;;;10.32;2.55;;;;;;;;;;5009503;28;20058;-73
2022/09/27 10:25:49;;;;;;;10.13;2.05;;;;;;;;;;5009830;28;20337;-73
2022/09/27 10:28:31;;;;;;;8.27;2.10;;;;;;;;;;5008932;28;20083;-73
2022/09/27 10:31:06;;;;;;;8.68;2.03;;;;;;;;;;4989629;28;20391;-72
2022/09/27 10:33:34;;;;;;;12.07;2.35;;;;;;;;;;4989656;28;20037;-73
2022/09/27 10:36:00;;;;;;;12.57;2.17;;;;;;;;;;4990050;28;20044;-73
2022/09/27 10:38:28;;;;;;;11.00;2.33;;;;;;;;;;4989903;28;20529;-73
2022/09/27 10:40:56;;;;;;;13.82;2.80;;;;;;;;;;4990724;28;20046;-72
2022/09/27 10:43:33;;;;;;;10.30;2.28;;;;;;;;;;4990118;28;20111;-73
2022/09/27 10:46:19;;;;;;;10.95;2.50;;;;;;;;;;4989778;28;20552;-73
2022/09/27 10:48:46;;;;;;;7.13;2.22;;;;;;;;;;4989922;28;20601;-73
2022/09/27 10:51:23;;;;;;;11.55;2.22;;;;;;;;;;4989740;28;20038;-73
2022/09/27 10:53:49;;;;;;;9.68;1.90;;;;;;;;;;4989581;28;20519;-73
2022/09/27 10:56:21;;;;;;;9.77;2.20;;;;;;;;;;4990181;28;20026;-73
2022/09/27 10:58:47;;;;;;;10.32;2.15;;;;;;;;;;4990005;28;20038;-72
2022/09/27 11:01:14;;;;;;;8.80;1.92;;;;;;;;;;5031205;28;20018;-72
2022/09/27 11:03:51;;;;;;;8.00;1.75;;;;;;;;;;5031503;28;20044;-72
2022/09/27 11:06:29;;;;;;;10.07;1.90;;;;;;;;;;5031701;28;20029;-72
2022/09/27 11:08:57;;;;;;;10.20;2.22;;;;;;;;;;5031865;28;20493;-72
2022/09/27 11:11:24;;;;;;;24.83;2.20;;;;;;;;;;5031018;28;20030;-73
2022/09/27 11:13:58;;;;;;;8.82;2.08;;;;;;;;;;5031418;28;20379;-73
2022/09/27 11:16:30;;;;;;;12.88;2.42;;;;;;;;;;5031424;28;20030;-73
2022/09/27 11:19:16;;;;;;;14.05;1.63;;;;;;;;;;5031513;28;20024;-72
2022/09/27 11:21:51;;;;;;;6.90;1.92;;;;;;;;;;5031148;28;20043;-73
2022/09/27 11:24:20;;;;;;;14.80;2.05;;;;;;;;;;5031232;28;20037;-73
2022/09/27 11:26:49;;;;;;;6.50;1.50;;;;;;;;;;5031815;28;20028;-73
2022/09/27 11:29:25;;;;;;;8.00;1.70;;;;;;;;;;5034322;28;20036;-73
2022/09/27 11:31:57;;;;;;;9.18;1.52;;;;;;;;;;5050109;28;20033;-73
2022/09/27 11:34:26;;;;;;;5.15;1.23;;;;;;;;;;5034811;28;20025;-73
2022/09/27 11:37:02;;;;;;;12.27;1.73;;;;;;;;;;5034847;28;20030;-73
2022/09/27 11:39:38;;;;;;;9.35;2.03;;;;;;;;;;5024972;28;20390;-72
2022/09/27 11:42:13;;;;;;;7.25;1.50;;;;;;;;;;5026453;28;20417;-73
2022/09/27 11:44:40;;;;;;;7.22;1.45;;;;;;;;;;5033898;28;20445;-73
2022/09/27 11:47:12;;;;;;;5.47;1.63;;;;;;;;;;5033887;28;20033;-73
2022/09/27 11:49:57;;;;;;;6.78;1.58;;;;;;;;;;5033767;28;20086;-73
2022/09/27 11:52:23;;;;;;;15.30;1.60;;;;;;;;;;5031018;28;20029;-73
2022/09/27 11:55:08;;;;;;;9.13;1.80;;;;;;;;;;5033718;28;20009;-73
2022/09/27 11:57:53;;;;;;;6.97;1.50;;;;;;;;;;5029846;28;20382;-74
2022/09/27 12:00:23;;;;;;;3.92;1.10;;;;;;;;;;5032413;28;20036;-73
2022/09/27 12:02:52;;;;;;;8.27;1.92;;;;;;;;;;5033341;28;20025;-73
2022/09/27 12:05:25;;;;;;;6.45;1.50;;;;;;;;;;5032952;28;20025;-73
2022/09/27 12:07:57;;;;;;;5.35;1.20;;;;;;;;;;5032509;28;20036;-72
2022/09/27 12:10:24;;;;;;;6.15;1.75;;;;;;;;;;5033181;28;20024;-72
2022/09/27 12:12:52;;;;;;;4.53;1.15;;;;;;;;;;5032261;28;20046;-73
2022/09/27 12:15:20;;;;;;;3.60;1.08;;;;;;;;;;5033574;28;20014;-72
2022/09/27 12:17:48;;;;;;;2.88;0.88;;;;;;;;;;5032289;28;20025;-74
2022/09/27 12:20:15;;;;;;;5.68;1.33;;;;;;;;;;5031870;28;20031;-73
2022/09/27 12:22:50;;;;;;;6.80;0.98;;;;;;;;;;5033078;28;20068;-73
2022/09/27 12:25:18;;;;;;;5.85;1.58;;;;;;;;;;5033382;28;20421;-72
2022/09/27 12:27:51;;;;;;;10.93;1.52;;;;;;;;;;5032949;28;20029;-72
2022/09/27 12:30:18;;;;;;;2.92;1.00;;;;;;;;;;5033546;28;20021;-73
2022/09/27 12:32:50;;;;;;;3.92;1.10;;;;;;;;;;5033516;28;20033;-72
2022/09/27 12:35:18;;;;;;;15.23;1.30;;;;;;;;;;5033277;28;20048;-72
2022/09/27 12:37:56;;;;;;;5.13;1.33;;;;;;;;;;5032826;28;20060;-73
2022/09/27 12:40:28;;;;;;;3.50;1.15;;;;;;;;;;5033334;28;20036;-72
2022/09/27 12:43:20;;;;;;;4.05;1.15;;;;;;;;;;5036242;28;20036;-73
2022/09/27 12:46:07;;;;;;;7.70;1.45;;;;;;;;;;5028649;28;20035;-71
2022/09/27 12:48:48;;;;;;;7.72;1.40;;;;;;;;;;5007972;28;20044;-73
2022/09/27 12:51:17;;;;;;;10.65;1.23;;;;;;;;;;5009150;28;20030;-73
2022/09/27 12:53:58;;;;;;;4.95;1.17;;;;;;;;;;5008379;28;20042;-73
2022/09/27 12:56:24;;;;;;;5.82;1.35;;;;;;;;;;5009864;28;20554;-73
2022/09/27 12:59:01;;;;;;;3.65;1.35;;;;;;;;;;5007107;28;20029;-72
2022/09/27 13:01:57;;;;;;;7.45;1.48;;;;;;;;;;5008801;28;20034;-73
2022/09/27 13:04:43;;;;;;;6.82;0.90;;;;;;;;;;4981931;28;20577;-73
2022/09/27 13:07:29;;;;;;;6.85;1.40;;;;;;;;;;4976980;28;20073;-73
2022/09/27 13:10:10;;;;;;;9.43;1.38;;;;;;;;;;4982421;28;20034;-73
2022/09/27 13:12:38;;;;;;;4.03;1.27;;;;;;;;;;4980742;28;20459;-72
2022/09/27 13:15:26;;;;;;;4.28;1.08;;;;;;;;;;4980740;28;20042;-73
2022/09/27 13:17:58;;;;;;;3.67;0.82;;;;;;;;;;4980674;28;20034;-72
2022/09/27 13:20:27;;;;;;;3.75;1.10;;;;;;;;;;4978231;28;20046;-73
2022/09/27 13:22:56;;;;;;;7.45;1.27;;;;;;;;;;4972670;28;20075;-72
2022/09/27 13:25:42;;;;;;;5.18;1.52;;;;;;;;;;4984509;28;20482;-73
2022/09/27 13:28:26;;;;;;;3.47;1.00;;;;;;;;;;5006539;28;20038;-72
2022/09/27 13:30:53;;;;;;;5.82;1.30;;;;;;;;;;5010702;28;20033;-72
2022/09/27 13:33:20;;;;;;;4.68;1.25;;;;;;;;;;5010952;28;20032;-73
2022/09/27 13:36:05;;;;;;;3.85;1.10;;;;;;;;;;5012304;28;20049;-73
2022/09/27 13:38:32;;;;;;;4.70;0.80;;;;;;;;;;5011184;28;20056;-73
2022/09/27 13:41:27;;;;;;;3.40;0.95;;;;;;;;;;5022096;28;20037;-73
2022/09/27 13:44:12;;;;;;;6.03;1.20;;;;;;;;;;5026016;28;20457;-72
2022/09/27 13:46:45;;;;;;;6.72;1.20;;;;;;;;;;5031215;28;20029;-73
2022/09/27 13:49:17;;;;;;;3.35;0.77;;;;;;;;;;5030500;28;20021;-73
2022/09/27 13:51:48;;;;;;;7.53;1.20;;;;;;;;;;5019894;28;20036;-73
2022/09/27 13:54:33;;;;;;;3.42;0.90;;;;;;;;;;5011126;28;20026;-73
2022/09/27 13:57:00;;;;;;;5.68;1.17;;;;;;;;;;5011279;28;20022;-73
2022/09/27 13:59:42;;;;;;;7.13;1.30;;;;;;;;;;5011181;28;20032;-73
2022/09/27 14:02:08;;;;;;;6.25;1.23;;;;;;;;;;5013082;28;20040;-73
2022/09/27 14:04:45;;;;;;;3.60;1.05;;;;;;;;;;5029888;28;20448;-72
2022/09/27 14:07:14;;;;;;;4.97;1.30;;;;;;;;;;5026916;28;20021;-72
2022/09/27 14:09:43;;;;;;;4.90;1.20;;;;;;;;;;5027280;28;20033;-73
2022/09/27 14:12:11;;;;;;;1.60;0.80;;;;;;;;;;5030356;28;20048;-73
2022/09/27 14:14:38;;;;;;;4.75;0.93;;;;;;;;;;5030615;28;20052;-73
2022/09/27 14:17:07;;;;;;;7.22;1.00;;;;;;;;;;5045700;28;20029;-73
2022/09/27 14:19:34;;;;;;;2.60;0.90;;;;;;;;;;5030298;28;20021;-73
2022/09/27 14:22:01;;;;;;;3.28;0.80;;;;;;;;;;5030637;28;20130;-73
2022/09/27 14:24:29;;;;;;;2.67;0.80;;;;;;;;;;5029982;28;20432;-73
2022/09/27 14:27:19;;;;;;;5.00;1.50;;;;;;;;;;5030525;28;20009;-72
2022/09/27 14:29:45;;;;;;;4.30;1.35;;;;;;;;;;5030080;28;20030;-73
2022/09/27 14:32:13;;;;;;;3.38;1.10;;;;;;;;;;5024620;28;20026;-73
2022/09/27 14:34:40;;;;;;;3.95;0.98;;;;;;;;;;5019829;28;20413;-73
2022/09/27 14:37:24;;;;;;;4.07;1.27;;;;;;;;;;5029970;28;20041;-73
2022/09/27 14:39:56;;;;;;;2.88;0.90;;;;;;;;;;5028292;28;20029;-74
2022/09/27 14:42:24;;;;;;;4.38;0.93;;;;;;;;;;5029998;28;20492;-73
2022/09/27 14:44:51;;;;;;;4.30;1.00;;;;;;;;;;5030036;28;20402;-73
2022/09/27 14:47:17;;;;;;;3.75;0.98;;;;;;;;;;5025711;28;20028;-73
2022/09/27 14:49:58;;;;;;;1.85;0.60;;;;;;;;;;5030383;28;20021;-72
2022/09/27 14:52:27;;;;;;;4.32;1.00;;;;;;;;;;5028316;28;20512;-73
2022/09/27 14:55:04;;;;;;;8.65;1.10;;;;;;;;;;5029701;28;20429;-73
2022/09/27 14:57:33;;;;;;;3.00;0.80;;;;;;;;;;5030116;28;20063;-73
2022/09/27 15:00:17;;;;;;;2.95;0.80;;;;;;;;;;5030079;28;20494;-72
2022/09/27 15:02:43;;;;;;;3.08;0.80;;;;;;;;;;5031946;28;20026;-73
2022/09/27 15:05:14;;;;;;;4.13;0.93;;;;;;;;;;5033621;28;20031;-73